Time;durP1;ratioP1;P1;durP2;ratioP2;P2;SDS_P1;SDS_P2;PMS_P1;PMS_P2;Temp;Humidity;BMP_temperature;BMP_pressure;BME280_temperature;BME280_humidity;BME280_pressure;Samples;Min_cycle;Max_cycle;Signal;HPM_P1;HPM_P2
2023/03/25 00:01:36;;;;;;;2.78;0.52;;;8.80;99.90;;;;;;5077604;28;25058;-79
2023/03/25 00:04:04;;;;;;;1.40;0.70;;;8.80;99.90;;;;;;5077416;28;25087;-79
2023/03/25 00:06:35;;;;;;;1.73;0.47;;;8.80;99.90;;;;;;5077475;28;25094;-79
2023/03/25 00:09:04;;;;;;;3.03;0.60;;;8.80;99.90;;;;;;5077127;28;25059;-80
2023/03/25 00:11:31;;;;;;;2.58;0.80;;;8.80;99.90;;;;;;5077145;28;25094;-80
2023/03/25 00:13:59;;;;;;;2.45;0.47;;;8.80;99.90;;;;;;5059353;28;25095;-79
2023/03/25 00:16:26;;;;;;;1.80;0.52;;;8.70;99.90;;;;;;5077420;28;25103;-80
2023/03/25 00:18:53;;;;;;;4.07;0.55;;;8.70;99.90;;;;;;5059255;28;25059;-80
2023/03/25 00:21:22;;;;;;;1.13;0.40;;;8.60;99.90;;;;;;5077568;28;25114;-80
2023/03/25 00:23:50;;;;;;;4.22;0.50;;;8.60;99.90;;;;;;5077105;28;25059;-80
2023/03/25 00:26:17;;;;;;;3.30;0.77;;;8.70;99.90;;;;;;5077080;28;25126;-79
2023/03/25 00:28:47;;;;;;;4.72;0.95;;;8.70;99.90;;;;;;5076695;28;25059;-79
2023/03/25 00:31:15;;;;;;;2.38;0.70;;;8.80;99.90;;;;;;5077138;28;25060;-79
2023/03/25 00:33:42;;;;;;;1.30;0.47;;;8.80;99.90;;;;;;5077014;28;25062;-80
2023/03/25 00:36:12;;;;;;;2.33;0.88;;;8.80;99.90;;;;;;5077032;28;25112;-79
2023/03/25 00:38:41;;;;;;;2.10;1.02;;;8.90;99.90;;;;;;5076612;28;25104;-80
2023/03/25 00:41:21;;;;;;;2.45;0.50;;;9.00;99.90;;;;;;5076811;28;25062;-80
2023/03/25 00:43:54;;;;;;;2.05;0.60;;;9.00;99.90;;;;;;5076515;28;25070;-80
2023/03/25 00:46:22;;;;;;;3.45;0.70;;;9.10;99.90;;;;;;5076596;28;25066;-79
2023/03/25 00:48:51;;;;;;;2.92;0.50;;;9.20;99.90;;;;;;5076812;28;25119;-80
2023/03/25 00:51:20;;;;;;;5.57;0.52;;;9.20;99.90;;;;;;5076479;28;25062;-80
2023/03/25 00:53:54;;;;;;;1.55;0.60;;;9.20;99.90;;;;;;5076437;28;25070;-80
2023/03/25 00:56:23;;;;;;;2.53;0.60;;;9.30;99.90;;;;;;5076459;28;25108;-80
2023/03/25 00:58:50;;;;;;;4.15;0.73;;;9.30;99.90;;;;;;5076694;28;25076;-80
2023/03/25 01:01:26;;;;;;;4.30;1.10;;;9.30;99.90;;;;;;5076529;28;25152;-80
2023/03/25 01:03:57;;;;;;;4.10;0.52;;;9.30;99.90;;;;;;5076594;28;25063;-80
2023/03/25 01:06:32;;;;;;;2.05;0.60;;;9.20;99.90;;;;;;5076345;28;25089;-80
2023/03/25 01:09:05;;;;;;;6.90;0.90;;;9.10;99.90;;;;;;5076317;28;25121;-80
2023/03/25 01:11:33;;;;;;;3.13;0.50;;;9.00;99.90;;;;;;5076789;28;25073;-79
2023/03/25 01:14:03;;;;;;;3.05;1.00;;;8.90;99.90;;;;;;5076565;28;25091;-80
2023/03/25 01:16:31;;;;;;;3.92;0.60;;;8.80;99.90;;;;;;5076291;28;25061;-80
2023/03/25 01:18:59;;;;;;;4.82;1.13;;;8.80;99.90;;;;;;5076491;28;25070;-80
2023/03/25 01:21:26;;;;;;;2.38;0.60;;;8.70;99.90;;;;;;5076919;28;25097;-80
2023/03/25 01:23:53;;;;;;;1.05;0.68;;;8.70;99.90;;;;;;5058269;28;25105;-80
2023/03/25 01:26:20;;;;;;;1.00;0.50;;;8.60;99.90;;;;;;5058338;28;25122;-80
2023/03/25 01:28:48;;;;;;;2.20;0.95;;;8.60;99.90;;;;;;5076402;28;25105;-80
2023/03/25 01:31:15;;;;;;;1.00;0.50;;;8.50;99.90;;;;;;5076412;28;25163;-80
2023/03/25 01:33:42;;;;;;;6.70;1.38;;;8.40;99.90;;;;;;5076365;28;25057;-80
2023/03/25 01:36:13;;;;;;;2.15;0.88;;;8.30;99.90;;;;;;5076327;28;25072;-80
2023/03/25 01:38:41;;;;;;;4.97;1.65;;;8.30;99.90;;;;;;5076327;28;25131;-80
2023/03/25 01:41:10;;;;;;;2.55;0.90;;;8.20;99.90;;;;;;5058248;28;25061;-80
2023/03/25 01:43:38;;;;;;;7.03;0.95;;;8.20;99.90;;;;;;5075893;28;25076;-80
2023/03/25 01:46:07;;;;;;;1.83;0.70;;;8.10;99.90;;;;;;5076127;28;25050;-80
2023/03/25 01:48:39;;;;;;;3.55;0.75;;;8.10;99.90;;;;;;5075912;28;25057;-80
2023/03/25 01:51:27;;;;;;;2.03;0.80;;;8.10;99.90;;;;;;5075696;28;25086;-80
2023/03/25 01:53:55;;;;;;;4.13;0.82;;;8.10;99.90;;;;;;5079469;28;25072;-80
2023/03/25 01:56:38;;;;;;;3.03;0.65;;;8.10;99.90;;;;;;5080434;28;25057;-80
2023/03/25 01:59:07;;;;;;;0.50;0.32;;;8.20;99.90;;;;;;5079948;28;25138;-80
2023/03/25 02:01:36;;;;;;;2.35;0.90;;;8.10;99.90;;;;;;5080199;28;25059;-80
2023/03/25 02:04:08;;;;;;;4.40;0.93;;;8.20;99.90;;;;;;5079745;28;25091;-81
2023/03/25 02:06:46;;;;;;;5.43;0.98;;;8.20;99.90;;;;;;5061781;28;25118;-80
2023/03/25 02:09:17;;;;;;;5.57;1.42;;;8.20;99.90;;;;;;5079729;28;25057;-81
2023/03/25 02:11:44;;;;;;;2.20;0.70;;;8.30;99.90;;;;;;5079723;28;25134;-80
2023/03/25 02:14:24;;;;;;;2.08;0.95;;;8.30;99.90;;;;;;5079669;28;25125;-81
2023/03/25 02:17:10;;;;;;;2.33;0.52;;;8.40;99.90;;;;;;5061590;28;25066;-81
2023/03/25 02:20:20;;;;;;;3.28;1.40;;;8.40;99.90;;;;;;5061464;28;25110;-81
2023/03/25 02:23:13;;;;;;;3.13;0.70;;;8.40;99.90;;;;;;5079417;28;25073;-81
2023/03/25 02:26:14;;;;;;;3.33;1.00;;;8.40;99.90;;;;;;5079458;28;25057;-81
2023/03/25 02:29:08;;;;;;;2.38;0.95;;;8.40;99.90;;;;;;5061591;28;25083;-81
2023/03/25 02:32:00;;;;;;;3.42;0.93;;;8.40;99.90;;;;;;5079513;28;25066;-80
2023/03/25 02:35:02;;;;;;;2.47;0.90;;;8.40;99.90;;;;;;5079001;28;25097;-81
2023/03/25 02:38:08;;;;;;;7.57;0.90;;;8.50;99.90;;;;;;5061418;28;25120;-81
2023/03/25 02:41:11;;;;;;;7.85;1.05;;;8.50;99.90;;;;;;5079122;28;25082;-81
2023/03/25 02:44:02;;;;;;;4.72;1.08;;;8.50;99.90;;;;;;5079051;28;25119;-81
2023/03/25 02:46:31;;;;;;;5.88;1.00;;;8.50;99.90;;;;;;5079046;28;25060;-81
2023/03/25 02:49:15;;;;;;;3.83;1.08;;;8.50;99.90;;;;;;5078461;28;25056;-81
2023/03/25 02:52:02;;;;;;;5.55;0.90;;;8.50;99.90;;;;;;5057492;28;25088;-81
2023/03/25 02:54:32;;;;;;;4.25;1.27;;;8.50;99.90;;;;;;5048265;28;25129;-81
2023/03/25 02:57:00;;;;;;;3.40;0.80;;;8.50;99.90;;;;;;5058066;28;25108;-81
2023/03/25 02:59:32;;;;;;;4.38;1.35;;;8.50;99.90;;;;;;5058475;28;25154;-82
2023/03/25 03:02:06;;;;;;;2.45;0.93;;;8.50;99.90;;;;;;5058380;28;25047;-81
2023/03/25 03:04:53;;;;;;;7.10;1.23;;;8.50;99.90;;;;;;5057290;28;25070;-82
2023/03/25 03:07:33;;;;;;;8.25;1.17;;;8.50;99.90;;;;;;5057480;28;25107;-81
2023/03/25 03:10:22;;;;;;;5.57;1.75;;;8.50;99.90;;;;;;5058622;28;25063;-81
2023/03/25 03:13:14;;;;;;;3.88;1.20;;;8.50;99.90;;;;;;5055866;28;25043;-82
2023/03/25 03:15:51;;;;;;;4.45;0.90;;;8.50;99.90;;;;;;5058696;28;25140;-82
2023/03/25 03:18:50;;;;;;;7.22;1.13;;;8.50;99.90;;;;;;5058726;28;25077;-81
2023/03/25 03:21:23;;;;;;;7.72;1.50;;;8.50;99.90;;;;;;5048247;28;25068;-82
2023/03/25 03:24:16;;;;;;;3.40;0.90;;;8.50;99.90;;;;;;5058280;28;25061;-82
2023/03/25 03:27:05;;;;;;;9.90;1.95;;;8.50;99.90;;;;;;5058457;28;25090;-82
2023/03/25 03:29:46;;;;;;;2.10;0.80;;;8.40;99.90;;;;;;5058267;28;25062;-81
2023/03/25 03:32:47;;;;;;;2.97;1.13;;;8.40;99.90;;;;;;5058233;28;25054;-81
2023/03/25 03:35:28;;;;;;;4.80;1.05;;;8.40;99.90;;;;;;5056983;28;25076;-82
2023/03/25 03:38:08;;;;;;;7.00;1.08;;;8.40;99.90;;;;;;5058337;28;25055;-82
2023/03/25 03:40:38;;;;;;;5.80;0.95;;;8.40;99.90;;;;;;5057751;28;25106;-82
2023/03/25 03:43:22;;;;;;;2.30;1.23;;;8.30;99.90;;;;;;5057601;28;25087;-82
2023/03/25 03:45:56;;;;;;;5.07;1.50;;;8.20;99.90;;;;;;5056766;28;25070;-82
2023/03/25 03:48:39;;;;;;;4.40;1.33;;;8.10;99.90;;;;;;5057609;28;25064;-82
2023/03/25 03:51:20;;;;;;;4.32;1.20;;;8.00;99.90;;;;;;5057901;28;25109;-82
2023/03/25 03:54:02;;;;;;;5.32;1.77;;;8.00;99.90;;;;;;5077477;28;25084;-82
2023/03/25 03:57:03;;;;;;;7.05;1.30;;;8.00;99.90;;;;;;5077451;28;25070;-82
2023/03/25 03:59:37;;;;;;;5.53;1.15;;;7.90;99.90;;;;;;5077602;28;25067;-82
2023/03/25 04:02:22;;;;;;;3.03;1.10;;;7.90;99.90;;;;;;5077207;28;25072;-82
2023/03/25 04:04:52;;;;;;;4.53;1.33;;;7.90;99.90;;;;;;5077290;28;25149;-82
2023/03/25 04:07:28;;;;;;;3.88;1.65;;;7.90;99.90;;;;;;5077280;28;25065;-82
2023/03/25 04:10:13;;;;;;;4.55;1.48;;;7.90;99.90;;;;;;5059471;28;25068;-82
2023/03/25 04:12:54;;;;;;;6.13;1.10;;;7.90;99.90;;;;;;5077616;28;25099;-82
2023/03/25 04:15:22;;;;;;;4.22;0.98;;;8.00;99.90;;;;;;5051449;28;25123;-82
2023/03/25 04:17:49;;;;;;;2.88;1.10;;;8.00;99.90;;;;;;5077310;28;25037;-82
2023/03/25 04:20:28;;;;;;;5.93;1.33;;;8.00;99.90;;;;;;5077393;28;25100;-82
2023/03/25 04:22:56;;;;;;;1.45;0.75;;;8.10;99.90;;;;;;5076884;28;25092;-82
2023/03/25 04:25:24;;;;;;;4.32;1.42;;;8.10;99.90;;;;;;5076905;28;25126;-82
2023/03/25 04:27:57;;;;;;;3.42;1.13;;;8.20;99.90;;;;;;5059066;28;25076;-82
2023/03/25 04:30:27;;;;;;;4.07;1.52;;;8.20;99.90;;;;;;5076971;28;25077;-82
2023/03/25 04:32:54;;;;;;;2.17;0.95;;;8.20;99.90;;;;;;5076747;28;25081;-82
2023/03/25 04:35:21;;;;;;;7.00;1.35;;;8.20;99.90;;;;;;5077050;28;25080;-81
2023/03/25 04:37:52;;;;;;;2.05;0.93;;;8.20;99.90;;;;;;5077008;28;25106;-82
2023/03/25 04:40:20;;;;;;;4.10;1.00;;;8.20;99.90;;;;;;5077020;28;25076;-82
2023/03/25 04:42:47;;;;;;;3.55;1.00;;;8.30;99.90;;;;;;5076782;28;25111;-82
2023/03/25 04:45:15;;;;;;;3.47;1.05;;;8.30;99.90;;;;;;5076879;28;25070;-82
2023/03/25 04:47:45;;;;;;;5.80;1.30;;;8.30;99.90;;;;;;5076554;28;25071;-82
2023/03/25 04:50:22;;;;;;;2.95;1.05;;;8.20;99.90;;;;;;5076657;28;25089;-82
2023/03/25 04:52:52;;;;;;;7.25;1.38;;;8.20;99.90;;;;;;5055202;28;25081;-81
2023/03/25 04:55:20;;;;;;;2.30;0.90;;;8.20;99.90;;;;;;5056755;28;25071;-82
2023/03/25 04:57:49;;;;;;;6.63;1.10;;;8.20;99.90;;;;;;5056416;28;25058;-81
2023/03/25 05:00:21;;;;;;;7.90;1.55;;;8.20;99.90;;;;;;5056593;28;25003;-82
2023/03/25 05:02:50;;;;;;;1.38;0.82;;;8.20;99.90;;;;;;5055087;28;25085;-81
2023/03/25 05:05:21;;;;;;;5.05;1.48;;;8.20;99.90;;;;;;5054623;28;25064;-81
2023/03/25 05:07:52;;;;;;;5.70;1.10;;;8.10;99.90;;;;;;5056247;28;25103;-81
2023/03/25 05:10:23;;;;;;;4.68;1.17;;;8.10;99.90;;;;;;5056485;28;25108;-81
2023/03/25 05:12:50;;;;;;;3.33;1.30;;;8.10;99.90;;;;;;5056234;28;25128;-82
2023/03/25 05:15:17;;;;;;;8.25;1.65;;;8.10;99.90;;;;;;5055097;28;25055;-82
2023/03/25 05:17:44;;;;;;;2.58;1.25;;;8.10;99.90;;;;;;5055342;28;25056;-82
2023/03/25 05:20:13;;;;;;;4.22;1.58;;;8.10;99.90;;;;;;5055331;28;25057;-82
2023/03/25 05:22:40;;;;;;;3.55;0.85;;;8.00;99.90;;;;;;5055992;28;25130;-82
2023/03/25 05:25:09;;;;;;;3.60;1.52;;;7.90;99.90;;;;;;5056500;28;25068;-82
2023/03/25 05:27:38;;;;;;;2.85;1.25;;;7.90;99.90;;;;;;5056370;28;25057;-82
2023/03/25 05:30:07;;;;;;;9.93;1.65;;;7.90;99.90;;;;;;5059532;28;25064;-82
2023/03/25 05:32:34;;;;;;;3.42;1.63;;;7.90;99.90;;;;;;5060146;28;25058;-82
2023/03/25 05:35:03;;;;;;;4.07;1.52;;;7.90;99.90;;;;;;5060083;28;25065;-82
2023/03/25 05:37:30;;;;;;;4.15;1.13;;;8.00;99.90;;;;;;5060272;28;25072;-80
2023/03/25 05:39:58;;;;;;;2.90;1.40;;;8.10;99.90;;;;;;5060011;28;25068;-80
2023/03/25 05:42:26;;;;;;;4.40;1.00;;;8.10;99.90;;;;;;5059839;28;25111;-81
2023/03/25 05:44:53;;;;;;;4.07;1.80;;;8.10;99.90;;;;;;5060224;28;25118;-80
2023/03/25 05:47:23;;;;;;;5.43;1.45;;;8.20;99.90;;;;;;5060325;28;25107;-80
2023/03/25 05:49:52;;;;;;;8.82;1.30;;;8.20;99.90;;;;;;5059864;28;25073;-80
2023/03/25 05:52:23;;;;;;;2.40;0.95;;;8.20;99.90;;;;;;5069962;28;25106;-80
2023/03/25 05:54:51;;;;;;;3.70;0.90;;;8.20;99.90;;;;;;5079710;28;25081;-80
2023/03/25 05:57:18;;;;;;;4.13;1.45;;;8.20;99.90;;;;;;5080402;28;25101;-80
2023/03/25 05:59:46;;;;;;;5.03;1.40;;;8.20;99.90;;;;;;5078955;28;25052;-80
2023/03/25 06:02:16;;;;;;;2.47;1.10;;;8.30;99.90;;;;;;5078599;28;25056;-80
2023/03/25 06:04:45;;;;;;;6.20;1.58;;;8.30;99.90;;;;;;5060774;28;25071;-80
2023/03/25 06:07:18;;;;;;;3.72;1.10;;;8.30;99.90;;;;;;5080224;28;25080;-80
2023/03/25 06:09:46;;;;;;;3.13;1.00;;;8.30;99.90;;;;;;5079363;28;25091;-80
2023/03/25 06:12:15;;;;;;;6.05;1.15;;;8.40;99.90;;;;;;5078924;28;25085;-80
2023/03/25 06:14:44;;;;;;;5.10;1.40;;;8.40;99.90;;;;;;5079409;28;25127;-80
2023/03/25 06:17:21;;;;;;;1.45;0.70;;;8.40;99.90;;;;;;5061815;28;25083;-80
2023/03/25 06:19:49;;;;;;;2.00;0.90;;;8.50;99.90;;;;;;5079328;28;25098;-79
2023/03/25 06:22:20;;;;;;;5.50;1.10;;;8.50;99.90;;;;;;5061472;28;25062;-80
2023/03/25 06:24:48;;;;;;;3.47;1.13;;;8.50;99.90;;;;;;5079140;28;25100;-79
2023/03/25 06:27:17;;;;;;;3.10;1.00;;;8.50;99.90;;;;;;5061377;28;25057;-79
2023/03/25 06:29:46;;;;;;;3.53;1.17;;;8.60;99.90;;;;;;5079090;28;25087;-76
2023/03/25 06:32:14;;;;;;;1.90;0.88;;;8.60;99.90;;;;;;5079347;28;25095;-79
2023/03/25 06:34:42;;;;;;;4.05;1.00;;;8.70;99.90;;;;;;5061310;28;25049;-78
2023/03/25 06:37:10;;;;;;;10.98;0.90;;;8.60;99.90;;;;;;5079008;28;25072;-79
2023/03/25 06:39:37;;;;;;;2.55;0.95;;;8.70;99.90;;;;;;5078784;28;25095;-79
2023/03/25 06:42:06;;;;;;;6.50;1.13;;;8.70;99.90;;;;;;5079288;28;25075;-79
2023/03/25 06:44:33;;;;;;;3.55;0.93;;;8.70;99.90;;;;;;5060975;28;25068;-77
2023/03/25 06:47:03;;;;;;;3.53;1.10;;;8.70;99.90;;;;;;5079120;28;25062;-77
2023/03/25 06:49:31;;;;;;;4.85;0.88;;;8.80;99.90;;;;;;5079072;28;25060;-77
2023/03/25 06:51:58;;;;;;;3.00;2.13;;;8.70;99.90;;;;;;5079159;28;25116;-76
2023/03/25 06:54:25;;;;;;;1.98;0.93;;;8.70;99.90;;;;;;5079274;28;25147;-77
2023/03/25 06:56:53;;;;;;;6.10;1.65;;;8.70;99.90;;;;;;5078964;28;25136;-76
2023/03/25 06:59:20;;;;;;;3.28;1.33;;;8.70;99.90;;;;;;5081662;28;25060;-80
2023/03/25 07:01:48;;;;;;;2.25;1.00;;;8.80;99.90;;;;;;5061194;28;25113;-78
2023/03/25 07:04:16;;;;;;;52.70;36.50;;;8.80;99.90;;;;;;5077740;28;20459;-75
2023/03/25 07:06:44;;;;;;;3.63;1.33;;;8.80;99.90;;;;;;5079099;28;25072;-77
2023/03/25 07:09:11;;;;;;;4.30;1.20;;;8.70;99.90;;;;;;5078439;28;25064;-85
2023/03/25 07:11:38;;;;;;;40.45;14.55;;;8.70;99.90;;;;;;5062002;28;25105;-84
2023/03/25 07:14:05;;;;;;;58.38;20.00;;;8.70;99.90;;;;;;5061155;28;25066;-82
2023/03/25 07:16:33;;;;;;;2.45;1.15;;;8.80;99.90;;;;;;5077867;28;25117;-81
2023/03/25 07:19:00;;;;;;;4.65;1.00;;;8.90;99.90;;;;;;5058640;28;25058;-80
2023/03/25 07:21:27;;;;;;;4.15;1.23;;;8.90;99.90;;;;;;5078635;28;25127;-84
2023/03/25 07:23:55;;;;;;;4.47;1.05;;;8.80;99.90;;;;;;5060341;28;25102;-83
2023/03/25 07:26:22;;;;;;;5.00;0.90;;;8.50;99.90;;;;;;5078553;28;25051;-88
2023/03/25 07:28:50;;;;;;;4.47;1.30;;;8.30;99.90;;;;;;5078174;28;25052;-83
2023/03/25 07:31:17;;;;;;;5.80;1.83;;;8.20;99.90;;;;;;5060583;28;25063;-80
2023/03/25 07:33:44;;;;;;;5.75;1.20;;;8.10;99.90;;;;;;5077940;28;25049;-76
2023/03/25 07:36:13;;;;;;;4.65;1.58;;;8.20;99.90;;;;;;5060142;28;25064;-75
2023/03/25 07:38:41;;;;;;;3.97;1.73;;;8.20;99.90;;;;;;5077820;28;25129;-77
2023/03/25 07:41:10;;;;;;;2.75;1.30;;;8.30;99.90;;;;;;5060030;28;25157;-77
2023/03/25 07:43:38;;;;;;;5.38;2.30;;;8.30;99.90;;;;;;5059968;28;25148;-78
2023/03/25 07:46:05;;;;;;;6.50;1.60;;;8.40;99.90;;;;;;5077647;28;25060;-78
2023/03/25 07:48:32;;;;;;;2.30;1.02;;;8.60;99.90;;;;;;5077897;28;25101;-77
2023/03/25 07:50:59;;;;;;;2.03;1.02;;;8.70;99.90;;;;;;5059295;28;25057;-77
2023/03/25 07:53:27;;;;;;;3.65;1.40;;;8.60;99.90;;;;;;5077471;28;25067;-78
2023/03/25 07:55:54;;;;;;;5.97;1.20;;;8.50;99.90;;;;;;5077748;28;25054;-79
2023/03/25 07:58:21;;;;;;;8.60;2.10;;;8.40;99.90;;;;;;5077391;28;25101;-78
2023/03/25 08:00:49;;;;;;;4.72;2.20;;;8.20;99.90;;;;;;5077565;28;25060;-80
2023/03/25 08:03:16;;;;;;;7.25;1.70;;;8.10;99.90;;;;;;5077216;28;25139;-78
2023/03/25 08:05:47;;;;;;;3.15;1.33;;;8.10;99.90;;;;;;5077542;28;25086;-80
2023/03/25 08:08:15;;;;;;;7.78;2.22;;;8.10;99.90;;;;;;5077489;28;25066;-79
2023/03/25 08:10:45;;;;;;;5.10;1.67;;;8.10;99.90;;;;;;5077232;28;25108;-78
2023/03/25 08:13:13;;;;;;;3.83;1.83;;;8.20;99.90;;;;;;5077646;28;25082;-79
2023/03/25 08:15:40;;;;;;;3.60;1.13;;;8.20;99.90;;;;;;5077223;28;25061;-78
2023/03/25 08:18:08;;;;;;;7.20;1.20;;;8.30;99.90;;;;;;5077231;28;25063;-77
2023/03/25 08:20:35;;;;;;;1.77;0.95;;;8.30;99.90;;;;;;5076969;28;25074;-78
2023/03/25 08:23:03;;;;;;;2.85;1.02;;;8.40;99.90;;;;;;5076876;28;25059;-78
2023/03/25 08:25:30;;;;;;;6.72;1.02;;;8.40;99.90;;;;;;5077079;28;25110;-78
2023/03/25 08:27:58;;;;;;;3.78;0.75;;;8.40;99.90;;;;;;5076812;28;25128;-78
2023/03/25 08:30:25;;;;;;;2.95;0.95;;;8.50;99.90;;;;;;5076853;28;25123;-78
2023/03/25 08:32:56;;;;;;;3.03;0.85;;;8.60;99.90;;;;;;5076741;28;25127;-79
2023/03/25 08:35:23;;;;;;;3.72;0.82;;;8.90;99.90;;;;;;5077143;28;25054;-76
2023/03/25 08:37:50;;;;;;;2.47;0.52;;;9.00;99.90;;;;;;5077012;28;25068;-77
2023/03/25 08:40:18;;;;;;;6.15;0.80;;;9.20;99.90;;;;;;5076947;28;25154;-80
2023/03/25 08:42:46;;;;;;;2.35;1.13;;;9.30;99.90;;;;;;5058810;28;25075;-78
2023/03/25 08:45:17;;;;;;;1.92;0.70;;;9.30;99.90;;;;;;5076784;28;25073;-72
2023/03/25 08:47:45;;;;;;;4.20;0.70;;;9.20;99.90;;;;;;5077146;28;25111;-77
2023/03/25 08:50:12;;;;;;;4.85;1.05;;;9.00;99.90;;;;;;5076611;28;25048;-71
2023/03/25 08:52:40;;;;;;;3.75;0.70;;;8.90;99.90;;;;;;5076548;28;25065;-72
2023/03/25 08:55:09;;;;;;;2.20;0.70;;;8.90;99.90;;;;;;5077076;28;25139;-71
2023/03/25 08:57:36;;;;;;;2.80;0.65;;;9.00;99.90;;;;;;5042438;28;25072;-72
2023/03/25 09:00:15;;;;;;;2.08;1.08;;;9.30;99.90;;;;;;5076353;28;25108;-71
2023/03/25 09:02:44;;;;;;;5.57;0.85;;;9.50;99.90;;;;;;5075293;28;25113;-72
2023/03/25 09:05:14;;;;;;;7.10;1.67;;;9.80;99.90;;;;;;5076267;28;25077;-71
2023/03/25 09:07:42;;;;;;;3.20;0.70;;;9.90;99.90;;;;;;5076083;28;25126;-72
2023/03/25 09:10:09;;;;;;;4.00;1.23;;;9.90;99.90;;;;;;5077057;28;25060;-72
2023/03/25 09:12:36;;;;;;;7.03;1.73;;;10.10;99.90;;;;;;5076837;28;25117;-72
2023/03/25 09:15:04;;;;;;;3.10;0.70;;;10.20;99.90;;;;;;5076509;28;25054;-71
2023/03/25 09:17:31;;;;;;;3.50;1.10;;;10.30;99.90;;;;;;5058587;28;25123;-72
2023/03/25 09:19:59;;;;;;;2.38;1.17;;;10.40;99.90;;;;;;5076129;28;25075;-73
2023/03/25 09:22:26;;;;;;;3.60;0.88;;;10.60;99.90;;;;;;5059101;28;25072;-72
2023/03/25 09:24:53;;;;;;;2.42;0.65;;;10.50;99.90;;;;;;5076993;28;25109;-72
2023/03/25 09:27:21;;;;;;;3.50;1.23;;;10.40;99.90;;;;;;5058582;28;25112;-72
2023/03/25 09:29:49;;;;;;;2.28;0.93;;;10.40;99.90;;;;;;5058357;28;25069;-73
2023/03/25 09:32:17;;;;;;;3.08;1.00;;;10.30;99.90;;;;;;5058508;28;25059;-73
2023/03/25 09:34:44;;;;;;;5.20;0.80;;;10.30;99.90;;;;;;5076094;28;25077;-72
2023/03/25 09:37:12;;;;;;;3.53;1.10;;;10.30;99.90;;;;;;5076099;28;25096;-72
2023/03/25 09:39:40;;;;;;;3.15;0.90;;;10.20;99.90;;;;;;5076008;28;25049;-71
2023/03/25 09:42:36;;;;;;;2.78;0.73;;;10.20;99.90;;;;;;5076153;28;25074;-77
2023/03/25 09:45:32;;;;;;;2.53;1.13;;;10.20;99.90;;;;;;5076014;28;25117;-78
2023/03/25 09:48:06;;;;;;;5.03;1.13;;;10.30;99.90;;;;;;5054833;28;25067;-78
2023/03/25 09:50:35;;;;;;;3.10;1.17;;;10.30;99.90;;;;;;5076327;28;25081;-78
2023/03/25 09:53:29;;;;;;;2.60;1.00;;;10.30;99.90;;;;;;5075692;28;25078;-76
2023/03/25 09:55:57;;;;;;;4.95;2.13;;;10.30;99.90;;;;;;5075848;28;25048;-79
2023/03/25 09:58:44;;;;;;;4.25;1.35;;;10.30;99.90;;;;;;5076110;28;25133;-79
2023/03/25 10:01:15;;;;;;;6.10;1.27;;;10.40;99.90;;;;;;5076510;28;25098;-77
2023/03/25 10:04:17;;;;;;;4.63;0.90;;;10.40;99.90;;;;;;5076006;28;25065;-77
2023/03/25 10:07:06;;;;;;;5.40;1.15;;;10.30;99.90;;;;;;5071776;28;25084;-76
2023/03/25 10:10:06;;;;;;;2.85;0.90;;;10.10;99.90;;;;;;5075998;28;25067;-79
2023/03/25 10:12:45;;;;;;;3.47;1.55;;;10.00;99.90;;;;;;5075759;28;25073;-79
2023/03/25 10:15:28;;;;;;;5.40;1.15;;;10.10;99.90;;;;;;5079602;28;25068;-79
2023/03/25 10:18:32;;;;;;;3.25;2.08;;;10.30;99.90;;;;;;5061561;28;25097;-79
2023/03/25 10:21:19;;;;;;;6.50;1.50;;;10.50;99.90;;;;;;5079580;28;25072;-78
2023/03/25 10:24:10;;;;;;;3.47;0.93;;;10.70;99.90;;;;;;5079187;28;25067;-79
2023/03/25 10:26:45;;;;;;;5.10;1.40;;;10.90;99.90;;;;;;5079861;28;25081;-79
2023/03/25 10:29:21;;;;;;;5.63;1.73;;;11.00;99.90;;;;;;5079432;28;25071;-79
2023/03/25 10:32:06;;;;;;;5.32;1.10;;;10.90;99.90;;;;;;5079521;28;25143;-78
2023/03/25 10:34:48;;;;;;;9.57;1.80;;;10.70;99.90;;;;;;5079102;28;25083;-77
2023/03/25 10:37:27;;;;;;;5.00;1.05;;;10.80;99.90;;;;;;5079517;28;25140;-79
2023/03/25 10:40:20;;;;;;;8.63;2.35;;;10.80;99.90;;;;;;5079283;28;25085;-80
2023/03/25 10:43:23;;;;;;;4.38;0.93;;;10.80;99.90;;;;;;5078852;28;25054;-79
2023/03/25 10:46:17;;;;;;;5.22;1.27;;;10.90;99.90;;;;;;5079316;28;25048;-78
2023/03/25 10:48:46;;;;;;;7.25;1.30;;;11.00;99.90;;;;;;5076038;28;25059;-77
2023/03/25 10:51:16;;;;;;;5.13;2.03;;;11.20;99.90;;;;;;5078622;28;25053;-77
2023/03/25 10:53:51;;;;;;;3.67;1.25;;;11.40;99.90;;;;;;5078739;28;25064;-77
2023/03/25 10:56:31;;;;;;;5.68;1.33;;;11.50;99.90;;;;;;5079179;28;25057;-77
2023/03/25 10:59:06;;;;;;;6.00;1.67;;;11.60;99.90;;;;;;5078912;28;25069;-78
2023/03/25 11:01:43;;;;;;;5.30;1.33;;;11.60;99.90;;;;;;5078649;28;25128;-77
2023/03/25 11:04:18;;;;;;;6.93;1.67;;;11.60;99.90;;;;;;5060724;28;25055;-79
2023/03/25 11:06:58;;;;;;;10.65;1.45;;;11.80;99.90;;;;;;5078686;28;25061;-78
2023/03/25 11:09:29;;;;;;;4.82;1.20;;;12.00;99.90;;;;;;5060607;28;25068;-77
2023/03/25 11:12:05;;;;;;;5.53;1.20;;;12.00;99.90;;;;;;5060561;28;25124;-81
2023/03/25 11:14:39;;;;;;;9.57;2.03;;;11.90;99.90;;;;;;5078365;28;25070;-76
2023/03/25 11:17:20;;;;;;;7.68;1.42;;;11.80;99.90;;;;;;5078449;28;25052;-77
2023/03/25 11:19:52;;;;;;;4.72;1.42;;;11.70;99.90;;;;;;5078568;28;25116;-75
2023/03/25 11:22:27;;;;;;;3.65;1.10;;;11.70;99.90;;;;;;5078713;28;25313;-77
2023/03/25 11:25:21;;;;;;;5.20;1.20;;;11.60;99.90;;;;;;5059290;28;25071;-77
2023/03/25 11:28:04;;;;;;;2.95;1.30;;;11.60;99.90;;;;;;5078103;28;25108;-77
2023/03/25 11:30:31;;;;;;;6.53;1.23;;;11.50;99.90;;;;;;5078050;28;25067;-75
2023/03/25 11:33:07;;;;;;;7.75;1.58;;;11.40;99.90;;;;;;5077969;28;25097;-76
2023/03/25 11:35:47;;;;;;;6.57;1.98;;;11.30;99.90;;;;;;5077907;28;25064;-76
2023/03/25 11:38:22;;;;;;;3.92;1.00;;;11.30;99.90;;;;;;5077798;28;25054;-76
2023/03/25 11:40:57;;;;;;;8.73;2.08;;;11.60;99.90;;;;;;5077863;28;25066;-75
2023/03/25 11:43:36;;;;;;;6.03;1.33;;;11.70;99.90;;;;;;5077702;28;25062;-76
2023/03/25 11:46:20;;;;;;;4.40;1.80;;;11.80;99.90;;;;;;5078277;28;25128;-77
2023/03/25 11:48:52;;;;;;;4.55;1.77;;;11.90;99.90;;;;;;5077507;28;25070;-74
2023/03/25 11:51:30;;;;;;;5.20;1.58;;;11.80;99.90;;;;;;5077869;28;25107;-76
2023/03/25 11:54:08;;;;;;;4.97;1.75;;;11.70;99.90;;;;;;5077524;28;25073;-77
2023/03/25 11:56:41;;;;;;;6.80;1.70;;;11.50;99.90;;;;;;5078046;28;25106;-77
2023/03/25 11:59:26;;;;;;;4.47;1.50;;;11.20;99.90;;;;;;5077404;28;25107;-75
2023/03/25 12:02:22;;;;;;;3.63;1.25;;;11.20;99.90;;;;;;5077872;28;24893;-75
2023/03/25 12:05:16;;;;;;;3.50;0.93;;;11.30;99.90;;;;;;5077282;28;25082;-76
2023/03/25 12:07:47;;;;;;;5.20;1.52;;;11.30;99.90;;;;;;5073135;28;25070;-77
2023/03/25 12:10:35;;;;;;;9.70;2.05;;;11.40;99.90;;;;;;5077722;28;25111;-76
2023/03/25 12:13:27;;;;;;;3.72;1.35;;;11.50;99.90;;;;;;5077163;28;25115;-77
2023/03/25 12:16:26;;;;;;;2.90;1.20;;;11.80;99.90;;;;;;5077200;28;25059;-76
2023/03/25 12:19:10;;;;;;;3.00;1.40;;;11.90;99.90;;;;;;5077088;28;25074;-77
2023/03/25 12:22:10;;;;;;;4.43;1.38;;;11.90;99.90;;;;;;5077247;28;25075;-78
2023/03/25 12:24:46;;;;;;;5.50;1.38;;;11.90;99.90;;;;;;5043637;28;25060;-77
2023/03/25 12:27:39;;;;;;;5.38;1.10;;;11.80;99.90;;;;;;5076971;28;25059;-78
2023/03/25 12:30:43;;;;;;;3.03;1.25;;;11.70;99.90;;;;;;5076914;28;25071;-79
2023/03/25 12:33:49;;;;;;;5.40;1.40;;;11.60;99.90;;;;;;5076836;28;25104;-79
2023/03/25 12:36:27;;;;;;;3.42;0.85;;;11.70;99.90;;;;;;5075905;28;25075;-78
2023/03/25 12:39:09;;;;;;;3.75;1.17;;;11.80;99.90;;;;;;5076657;28;25107;-77
2023/03/25 12:41:48;;;;;;;7.05;1.73;;;11.90;99.90;;;;;;5076867;28;25097;-77
2023/03/25 12:44:42;;;;;;;5.10;1.35;;;12.00;99.90;;;;;;5076571;28;25078;-78
2023/03/25 12:47:20;;;;;;;3.58;0.75;;;12.10;99.90;;;;;;5076609;28;25118;-79
2023/03/25 12:50:09;;;;;;;7.03;1.35;;;12.20;99.90;;;;;;5076882;28;25128;-80
2023/03/25 12:52:56;;;;;;;3.75;0.90;;;12.10;99.90;;;;;;5055235;28;25086;-76
2023/03/25 12:55:44;;;;;;;3.72;1.23;;;12.10;99.90;;;;;;5056434;28;25076;-78
2023/03/25 12:59:03;;;;;;;5.07;1.00;;;12.10;99.90;;;;;;5056700;28;25057;-78
2023/03/25 13:01:37;;;;;;;3.05;0.80;;;12.50;99.90;;;;;;5031255;28;25077;-78
2023/03/25 13:04:37;;;;;;;4.60;1.15;;;12.80;99.90;;;;;;5056558;28;25076;-77
2023/03/25 13:07:15;;;;;;;6.47;1.38;;;13.00;99.90;;;;;;5056796;28;25118;-77
2023/03/25 13:10:10;;;;;;;2.03;0.60;;;12.90;99.90;;;;;;5056317;28;25054;-77
2023/03/25 13:13:13;;;;;;;3.40;0.68;;;12.80;99.90;;;;;;5047921;28;25079;-77
2023/03/25 13:15:48;;;;;;;4.07;1.02;;;12.20;99.90;;;;;;5056317;28;25144;-77
2023/03/25 13:18:23;;;;;;;5.13;1.38;;;11.70;99.90;;;;;;5055180;28;25117;-77
2023/03/25 13:20:59;;;;;;;3.88;1.73;;;11.40;99.90;;;;;;5055219;28;25073;-77
2023/03/25 13:23:26;;;;;;;;;;;11.20;99.90;;;;;;5056474;28;25120;-78
2023/03/25 13:26:05;;;;;;;9.15;1.63;;;10.90;99.90;;;;;;5056348;28;25123;-78
2023/03/25 13:28:42;;;;;;;5.15;1.63;;;10.50;99.90;;;;;;5056648;28;25058;-77
2023/03/25 13:31:17;;;;;;;9.85;1.50;;;10.10;99.90;;;;;;5056112;28;25055;-78
2023/03/25 13:34:08;;;;;;;3.97;1.35;;;9.90;99.90;;;;;;5056037;28;25051;-77